• Join FlightAware (Why Join?)
  • Login
  • US Flag 
05:36PM EDT


 

Airport Tracker/Info


-or-


 

Live Flight TrackerFlight Track Log ✈ UAL4553 ✈ 02-May-2013 ✈ KGSP - KIAH

Flight Track Log - Related Links

Times and Time Zones

All times are in EDT time to prevent confusion due to time zone crossing. See the UAL4553 flight status page for this flight to view local times or setup timezone preferences in your user account.

Time Position Orientation Groundspeed Altitude Reporting Facility
EDT Latitude Longitude Course Direction KTS MPH feet Rate Location/Type
06:57PM 34.9531 -82.1864 26° Northeast 181 208 3,800  Level Atlanta Center
06:58PM 34.9644 -82.2519 282° West 115 132 6,000 2,100 Climbing Atlanta Center
06:59PM 34.5860 -82.5661 223° Southwest  Level FlightAware Approximate
06:59PM 34.9028 -82.3114 218° Southwest 128 147 8,000  Level Atlanta Center
07:00PM 34.5098 -82.6531 223° Southwest  Level FlightAware Approximate
07:00PM 34.8431 -82.3736 221° Southwest 213 245 10,200  Level Atlanta Center
07:01PM 34.4405 -82.7476 231° Southwest  Level FlightAware Approximate
07:01PM 34.7711 -82.4458 220° Southwest 283 326 10,800  Level Atlanta Center
07:02PM 34.6947 -82.5153 217° Southwest 334 384 12,600 1,620 Climbing Atlanta Center
07:03PM 34.6328 -82.5747 218° Southwest 354 407 14,100 1,500 Climbing Atlanta Center
07:04PM 34.5483 -82.6592 219° Southwest 361 415 15,700 1,440 Climbing Atlanta Center
07:05PM 34.4697 -82.7386 220° Southwest 367 422 17,000 1,140 Climbing Atlanta Center
07:06PM 34.3917 -82.8406 227° Southwest 372 428 18,000 960 Climbing Atlanta Center
07:07PM 34.3383 -82.9519 240° Southwest 384 442 19,000 660 Climbing Atlanta Center
07:08PM 34.2789 -83.0683 238° Southwest 406 467 19,400 900 Climbing Atlanta Center
07:09PM 34.2108 -83.1797 234° Southwest 411 473 20,900 1,740 Climbing Atlanta Center
07:10PM 34.1447 -83.2833 232° Southwest 410 472 22,900 1,800 Climbing Atlanta Center
07:11PM 34.0806 -83.3817 232° Southwest 391 450 24,500 1,560 Climbing Atlanta Center
07:12PM 34.0206 -83.4800 234° Southwest 379 436 26,100 1,560 Climbing Atlanta Center
07:13PM 33.9583 -83.5781 233° Southwest 379 436 27,700 1,500 Climbing Atlanta Center
07:14PM 33.8958 -83.6683 230° Southwest 362 417 29,200 1,380 Climbing Atlanta Center
07:15PM 33.8272 -83.7311 217° Southwest 349 402 30,500 1,320 Climbing Atlanta Center
07:16PM 33.7503 -83.7964 215° Southwest 349 402 31,900 1,200 Climbing Atlanta Center
07:17PM 33.6856 -83.8839 228° Southwest 349 402 32,900 900 Climbing Atlanta Center
07:18PM 33.6253 -83.9814 233° Southwest 363 418 33,800 900 Climbing Atlanta Center
07:19PM 33.5564 -84.0936 234° Southwest 381 438 34,800 960 Climbing Atlanta Center
07:20PM 33.4936 -84.1933 233° Southwest 381 438 35,800 600 Climbing Atlanta Center
07:21PM 33.4286 -84.2953 233° Southwest 386 444 36,000 60 Climbing Atlanta Center
07:22PM 33.3575 -84.4044 232° Southwest 404 465 36,000  Level Atlanta Center
07:23PM 33.2881 -84.5208 235° Southwest 426 490 36,000  Level Atlanta Center
07:24PM 33.2125 -84.6397 233° Southwest 440 506 36,000  Level Atlanta Center
07:25PM 33.1389 -84.7558 233° Southwest 448 516 36,000  Level Atlanta Center
07:26PM 33.0736 -84.8594 233° Southwest 448 516 36,000  Level Atlanta Center
07:27PM 32.9997 -84.9750 233° Southwest 448 516 36,000  Level Atlanta Center
07:28PM 32.9278 -85.0881 233° Southwest 443 510 36,000  Level Atlanta Center
07:29PM 32.8494 -85.2058 232° Southwest 433 498 36,000  Level Atlanta Center
07:30PM 32.7775 -85.3161 232° Southwest 427 491 36,000  Level Atlanta Center
07:31PM 32.7031 -85.4261 231° Southwest 427 491 36,000  Level Atlanta Center
07:32PM 32.6331 -85.5386 234° Southwest 427 491 36,000  Level Atlanta Center
07:33PM 32.5606 -85.6506 232° Southwest 427 491 36,000  Level Atlanta Center
07:34PM 32.4881 -85.7600 232° Southwest 432 497 36,000  Level Atlanta Center
07:35PM 32.4156 -85.8744 233° Southwest 432 497 36,000  Level Atlanta Center
07:36PM 32.3408 -85.9811 230° Southwest 432 497 36,000  Level Atlanta Center
07:37PM 32.2703 -86.0925 233° Southwest 427 491 36,000  Level Atlanta Center
07:38PM 32.2036 -86.2039 235° Southwest 427 491 36,000  Level Atlanta Center
07:39PM 32.1306 -86.3125 232° Southwest 427 491 36,000  Level Atlanta Center
07:40PM 32.0575 -86.4208 232° Southwest 435 501 36,000  Level Atlanta Center
07:41PM 31.9867 -86.5292 232° Southwest 430 495 36,000  Level Atlanta Center
07:42PM 31.9158 -86.6225 228° Southwest 430 495 36,000  Level Atlanta Center
07:43PM 31.8447 -86.7306 232° Southwest 425 489 36,000  Level Atlanta Center
07:44PM 31.7711 -86.8408 232° Southwest 425 489 36,000  Level Atlanta Center
07:45PM 31.7019 -86.9458 232° Southwest 425 489 36,000  Level Atlanta Center
07:46PM 31.6261 -87.0631 233° Southwest 425 489 36,000  Level Atlanta Center
07:47PM 31.4889 -87.2542 230° Southwest 420 483 36,000  Level Houston Center
07:48PM 31.4156 -87.3614 231° Southwest 422 486 36,000  Level Houston Center
07:49PM 31.3431 -87.4681 232° Southwest 420 483 36,000  Level Houston Center
07:50PM 31.2697 -87.5744 231° Southwest 420 483 36,000  Level Houston Center
07:51PM 31.1978 -87.6806 232° Southwest 417 480 36,000  Level Houston Center
07:52PM 31.1258 -87.7842 231° Southwest 420 483 36,000  Level Houston Center
07:54PM 31.0381 -87.9106 231° Southwest 421 484 36,000  Level Houston Center
07:55PM 30.9647 -88.0167 231° Southwest 422 486 36,000  Level Houston Center
07:56PM 30.8900 -88.1211 230° Southwest 421 484 36,000  Level Houston Center
07:57PM 30.8264 -88.2347 237° Southwest 419 482 36,000  Level Houston Center
07:58PM 30.7881 -88.3631 251° West 421 484 36,000  Level Houston Center
07:59PM 30.7475 -88.4917 250° West 423 487 36,000  Level Houston Center
08:00PM 30.7036 -88.6350 250° West 426 490 36,000  Level Houston Center
08:01PM 30.6636 -88.7644 250° West 426 490 36,000  Level Houston Center
08:02PM 30.6233 -88.8939 250° West 428 493 36,000 -60 Level Houston Center
08:03PM 30.5797 -89.0339 250° West 426 490 35,900  Descending Houston Center
08:04PM 30.5403 -89.1633 251° West 427 491 36,000  Climbing Houston Center
08:05PM 30.5000 -89.2911 250° West 424 488 36,000  Level Houston Center
08:06PM 30.4614 -89.4194 251° West 423 487 36,000  Level Houston Center
08:07PM 30.4292 -89.5719 256° West 408 470 36,000  Level Houston Center
08:08PM 30.4278 -89.6994 269° West 399 459 36,000  Level Houston Center
08:09PM 30.4178 -89.8194 265° West 399 459 36,000  Level Houston Center
08:10PM 30.4236 -89.9467 273° West 397 457 36,000  Level Houston Center
08:11PM 30.4375 -90.0928 276° West 387 445 36,000  Level Houston Center
08:12PM 30.4581 -90.2131 281° West 382 440 36,000  Level Houston Center
08:13PM 30.4739 -90.3361 279° West 385 443 36,000  Level Houston Center
08:14PM 30.4758 -90.4656 271° West 398 458 36,000  Level Houston Center
08:15PM 30.4731 -90.5953 269° West 403 464 36,000  Level Houston Center
08:16PM 30.4614 -90.7264 264° West 407 468 36,000  Level Houston Center
08:17PM 30.3903 -90.8644 239° Southwest 411 473 36,000  Level Houston Center
08:18PM 30.3258 -90.9736 236° Southwest 411 473 36,000  Level Houston Center
08:19PM 30.2636 -91.0828 237° Southwest 408 470 36,000  Level Houston Center
08:20PM 30.1997 -91.1919 236° Southwest 409 471 36,000  Level Houston Center
08:21PM 30.1361 -91.3031 237° Southwest 414 476 36,000  Level Houston Center
08:22PM 30.0719 -91.4125 236° Southwest 414 476 36,000  Level Houston Center
08:23PM 29.9953 -91.5456 236° Southwest 415 478 36,000  Level Houston Center
08:24PM 29.9308 -91.6567 236° Southwest 416 479 36,000  Level Houston Center
08:25PM 29.8681 -91.7611 235° Southwest 418 481 36,000  Level Houston Center
08:27PM 29.8033 -91.8731 236° Southwest 422 486 36,000  Level Houston Center
08:28PM 29.7236 -92.0075 236° Southwest 422 486 36,000 -60 Level Houston Center
08:29PM 29.6567 -92.1203 236° Southwest 425 489 35,900  Descending Houston Center
08:30PM 29.5925 -92.2294 236° Southwest 416 479 36,000  Climbing Houston Center
08:31PM 29.5292 -92.3358 236° Southwest 407 468 36,000  Level Houston Center
08:32PM 29.4672 -92.4439 237° Southwest 404 465 36,000  Level Houston Center
08:33PM 29.4622 -92.5664 267° West 392 451 36,000  Level Houston Center
08:34PM 29.4669 -92.6919 273° West 393 452 36,000 -360 Level Houston Center
08:35PM 29.4742 -92.8447 273° West 399 459 35,300 -1,200 Descending Houston Center
08:36PM 29.4806 -92.9739 273° West 404 465 33,600 -1,920 Descending Houston Center
08:37PM 29.4861 -93.1031 273° West 404 465 31,400 -2,100 Descending Houston Center
08:38PM 29.4919 -93.2386 273° West 420 483 29,300 -2,160 Descending Houston Center
08:39PM 29.4978 -93.3750 273° West 426 490 27,000 -2,220 Descending Houston Center
08:40PM 29.5031 -93.5125 273° West 430 495 24,800 -2,220 Descending Houston Center
08:41PM 29.5081 -93.6492 272° West 428 493 22,500 -2,460 Descending Houston Center
08:42PM 29.5142 -93.8100 273° West 422 486 19,800 -2,340 Descending Houston Center
08:43PM 29.5189 -93.9369 272° West 408 470 17,700 -2,160 Descending Houston Center
08:44PM 29.5236 -94.0569 273° West 389 448 15,400 -2,220 Descending Houston Center
08:45PM 29.5264 -94.1203 273° West 373 429 14,300 -1,980 Descending Houston Center
08:45PM 29.5278 -94.1744 272° West 375 432 13,400 -1,500 Descending Houston Center
08:45PM 29.5283 -94.2233 271° West 314 361 13,000 -540 Descending Houston Center
08:46PM 29.5314 -94.2883 273° West 329 379 12,900 -120 Descending Houston Center
08:47PM 29.5328 -94.3286 272° West 328 377 12,900 -420 Level Houston Center
08:47PM 29.5550 -94.3889 293° West 335 386 12,500 -840 Descending Houston Center
08:48PM 29.5908 -94.4772 295° West 312 359 11,500 -1,020 Descending Houston Center
08:49PM 29.6406 -94.5464 310° West 290 334 10,400 -1,080 Descending Houston Center
08:50PM 29.6617 -94.5717 314° West 275 316 10,100 -900 Descending Houston Center
08:50PM 29.6958 -94.6056 319° Northwest 275 316 9,500 -1,080 Descending Houston Center
08:51PM 29.7625 -94.6731 319° Northwest 269 310 8,200 -1,140 Descending Houston Center
08:52PM 29.8167 -94.7303 317° Northwest 266 306 7,200 -600 Descending Houston Center
08:53PM 29.8700 -94.7858 318° Northwest 261 300 7,000 -360 Descending Houston Center
08:54PM 29.9217 -94.8394 318° Northwest 254 292 6,500 -780 Descending Houston Center
08:55PM 29.9656 -94.9003 310° West 250 288 5,500 -840 Descending Houston Center
08:56PM 29.9969 -94.9725 297° West 258 297 4,900 -540 Descending Houston Center
08:57PM 29.9931 -95.0678 267° West 250 288 4,500 -840 Descending Houston Center
08:59PM 29.9919 -95.1492 269° West 248 285 3,200 -1,260 Descending Houston Center
09:00PM 29.9936 -95.2186 272° West 239 275 2,000 -1,200 Descending Houston Center